createdAt,value
2022-12-17T00:00:02.607Z,98344.94
2022-12-17T00:02:47.184Z,98341.56
2022-12-17T00:05:29.905Z,98353.38
2022-12-17T00:08:13.808Z,98350.84
2022-12-17T00:10:56.326Z,98354.44
2022-12-17T00:13:39.407Z,98359.25
2022-12-17T00:16:24.970Z,98359.84
2022-12-17T00:19:07.685Z,98359.69
2022-12-17T00:21:52.977Z,98367.56
2022-12-17T00:24:39.226Z,98364.06
2022-12-17T00:27:21.725Z,98373.38
2022-12-17T00:30:04.535Z,98370.91
2022-12-17T00:32:49.702Z,98373.06
2022-12-17T00:35:33.454Z,98377.44
2022-12-17T00:38:16.072Z,98384.31
2022-12-17T00:40:58.648Z,98386.19
2022-12-17T00:43:46.918Z,98396.88
2022-12-17T00:46:30.660Z,98387.53
2022-12-17T00:49:15.864Z,98404.28
2022-12-17T00:51:58.399Z,98400.53
2022-12-17T00:54:52.981Z,98408.41
2022-12-17T00:57:39.003Z,98410.44
2022-12-17T01:00:24.163Z,98408.78
2022-12-17T01:03:06.760Z,98410.31
2022-12-17T01:05:51.913Z,98421.81
2022-12-17T01:08:34.514Z,98428.75
2022-12-17T01:11:18.586Z,98425.03
2022-12-17T01:14:01.369Z,98421.47
2022-12-17T01:16:44.556Z,98421.69
2022-12-17T01:19:27.096Z,98427.47
2022-12-17T01:22:12.227Z,98428.63
2022-12-17T01:24:54.765Z,98439.31
2022-12-17T01:27:38.650Z,98433.66
2022-12-17T01:30:23.517Z,98428.84
2022-12-17T01:33:06.023Z,98435.94
2022-12-17T01:35:48.727Z,98430.06
2022-12-17T01:38:35.114Z,98440.94
2022-12-17T01:41:18.816Z,98437.13
2022-12-17T01:44:02.169Z,98446.19
2022-12-17T01:46:51.202Z,98451.78
2022-12-17T01:49:36.316Z,98451.13
2022-12-17T01:52:20.558Z,98456.97
2022-12-17T01:55:05.889Z,98452.50
2022-12-17T01:57:49.387Z,98458.25
2022-12-17T02:00:34.004Z,98459.78
2022-12-17T02:03:17.891Z,98470.59
2022-12-17T02:06:17.033Z,98475.44
2022-12-17T02:09:16.021Z,98477.72
2022-12-17T02:12:14.807Z,98481.94
2022-12-17T02:15:12.515Z,98481.50
2022-12-17T02:18:03.181Z,98486.84
2022-12-17T02:20:53.898Z,98491.34
2022-12-17T02:23:56.942Z,98485.88
2022-12-17T02:26:52.538Z,98494.69
2022-12-17T02:29:38.912Z,98490.41
2022-12-17T02:32:29.131Z,98496.97
2022-12-17T02:35:13.591Z,98494.16
2022-12-17T02:38:02.581Z,98494.59
2022-12-17T02:40:45.449Z,98491.25
2022-12-17T02:43:31.275Z,98503.75
2022-12-17T02:46:14.292Z,98498.31
2022-12-17T02:48:57.153Z,98501.91
2022-12-17T02:51:41.708Z,98507.47
2022-12-17T02:54:24.580Z,98520.22
2022-12-17T02:57:06.907Z,98523.25
2022-12-17T02:59:52.083Z,98518.44
2022-12-17T03:02:34.814Z,98522.25
2022-12-17T03:05:43.573Z,98524.28
2022-12-17T03:08:20.307Z,98530.47
2022-12-17T03:11:02.893Z,98531.66
2022-12-17T03:13:45.894Z,98540.13
2022-12-17T03:16:37.470Z,98541.53
2022-12-17T03:19:20.875Z,98543.59
2022-12-17T03:22:06.220Z,98548.09
2022-12-17T03:24:48.793Z,98547.97
2022-12-17T03:27:34.546Z,98549.69
2022-12-17T03:30:17.380Z,98557.00
2022-12-17T03:33:02.454Z,98558.53
2022-12-17T03:35:44.980Z,98553.06
2022-12-17T03:38:28.387Z,98556.06
2022-12-17T03:41:11.276Z,98561.13
2022-12-17T03:43:53.818Z,98552.38
2022-12-17T03:46:36.401Z,98555.19
2022-12-17T03:49:21.962Z,98560.53
2022-12-17T03:52:04.457Z,98564.25
2022-12-17T03:54:46.993Z,98560.31
2022-12-17T03:57:30.021Z,98552.88
2022-12-17T04:00:12.525Z,98560.06
2022-12-17T04:02:55.775Z,98559.78
2022-12-17T04:05:41.157Z,98561.84
2022-12-17T04:08:23.680Z,98559.94
2022-12-17T04:11:06.201Z,98562.50
2022-12-17T04:13:48.967Z,98566.88
2022-12-17T04:16:31.616Z,98571.16
2022-12-17T04:19:14.120Z,98577.28
2022-12-17T04:21:59.226Z,98578.53
2022-12-17T04:24:41.714Z,98590.34
2022-12-17T04:27:24.232Z,98587.63
2022-12-17T04:30:15.499Z,98603.34
2022-12-17T04:32:57.984Z,98607.72
2022-12-17T04:35:40.630Z,98603.75
2022-12-17T04:38:25.714Z,98596.66
2022-12-17T04:41:16.818Z,98602.78
2022-12-17T04:44:02.924Z,98605.28
2022-12-17T04:46:58.110Z,98609.28
2022-12-17T04:49:40.575Z,98609.97
2022-12-17T04:52:23.177Z,98615.84
2022-12-17T04:55:08.305Z,98613.59
2022-12-17T04:57:50.957Z,98621.31
2022-12-17T05:00:35.796Z,98622.41
2022-12-17T05:03:26.121Z,98621.72
2022-12-17T05:06:08.700Z,98626.16
2022-12-17T05:08:51.487Z,98629.06
2022-12-17T05:11:38.552Z,98625.72
2022-12-17T05:14:21.093Z,98636.88
2022-12-17T05:17:03.571Z,98631.56
2022-12-17T05:19:46.032Z,98630.03
2022-12-17T05:22:28.544Z,98637.47
2022-12-17T05:25:11.015Z,98648.22
2022-12-17T05:27:56.084Z,98655.53
2022-12-17T05:30:38.647Z,98644.69
2022-12-17T05:33:21.132Z,98650.25
2022-12-17T05:36:03.969Z,98654.28
2022-12-17T05:38:46.259Z,98662.44
2022-12-17T05:41:28.758Z,98663.28
2022-12-17T05:44:13.997Z,98661.69
2022-12-17T05:46:56.518Z,98660.09
2022-12-17T05:49:39.009Z,98659.72
2022-12-17T05:52:21.503Z,98668.25
2022-12-17T05:55:03.996Z,98671.69
2022-12-17T05:57:48.518Z,98674.84
2022-12-17T06:00:36.968Z,98674.06
2022-12-17T06:03:20.445Z,98683.84
2022-12-17T06:06:03.491Z,98682.16
2022-12-17T06:08:46.107Z,98683.19
2022-12-17T06:11:28.691Z,98692.03
2022-12-17T06:14:11.337Z,98697.16
2022-12-17T06:17:08.043Z,98696.56
2022-12-17T06:20:05.172Z,98696.56
2022-12-17T06:22:47.667Z,98704.59
2022-12-17T06:25:30.475Z,98706.50
2022-12-17T06:28:17.170Z,98696.25
2022-12-17T06:31:06.630Z,98704.78
2022-12-17T06:33:51.717Z,98705.59
2022-12-17T06:36:34.260Z,98710.75
2022-12-17T06:39:16.767Z,98712.34
2022-12-17T06:42:04.302Z,98721.22
2022-12-17T06:44:47.571Z,98723.25
2022-12-17T06:47:30.319Z,98724.84
2022-12-17T06:50:15.375Z,98731.28
2022-12-17T06:52:57.864Z,98743.91
2022-12-17T06:55:43.030Z,98737.78
2022-12-17T06:58:25.532Z,98738.28
2022-12-17T07:01:08.257Z,98737.22
2022-12-17T07:03:50.769Z,98740.41
2022-12-17T07:06:35.844Z,98738.94
2022-12-17T07:09:27.084Z,98743.84
2022-12-17T07:12:09.611Z,98744.81
2022-12-17T07:14:52.138Z,98756.44
2022-12-17T07:17:34.858Z,98759.38
2022-12-17T07:20:17.404Z,98763.47
2022-12-17T07:23:02.560Z,98755.97
2022-12-17T07:25:46.336Z,98765.78
2022-12-17T07:28:29.159Z,98768.13
2022-12-17T07:31:11.981Z,98772.81
2022-12-17T07:33:54.570Z,98774.44
2022-12-17T07:36:37.180Z,98782.19
2022-12-17T07:39:22.255Z,98788.25
2022-12-17T07:42:04.728Z,98789.94
2022-12-17T07:44:47.210Z,98792.78
2022-12-17T07:47:29.830Z,98795.78
2022-12-17T07:50:12.395Z,98799.16
2022-12-17T07:53:00.799Z,98794.31
2022-12-17T07:55:46.016Z,98798.66
2022-12-17T07:58:28.726Z,98807.88
2022-12-17T08:01:14.560Z,98812.66
2022-12-17T08:03:56.952Z,98818.59
2022-12-17T08:06:39.593Z,98817.50
2022-12-17T08:09:22.209Z,98829.25
2022-12-17T08:12:07.447Z,98829.47
2022-12-17T08:14:49.978Z,98830.91
2022-12-17T08:17:32.591Z,98826.34
2022-12-17T08:20:15.463Z,98830.38
2022-12-17T08:22:58.180Z,98831.72
2022-12-17T08:25:40.684Z,98836.06
2022-12-17T08:28:49.692Z,98836.19
2022-12-17T08:31:28.615Z,98843.00
2022-12-17T08:34:11.145Z,98845.50
2022-12-17T08:36:53.642Z,98854.41
2022-12-17T08:39:36.188Z,98857.03
2022-12-17T08:42:18.811Z,98860.19
2022-12-17T08:45:03.916Z,98867.13
2022-12-17T08:47:46.388Z,98870.50
2022-12-17T08:50:29.061Z,98874.88
2022-12-17T08:53:15.142Z,98878.84
2022-12-17T08:55:57.676Z,98887.75
2022-12-17T08:58:48.986Z,98883.97
2022-12-17T09:01:34.277Z,98885.75
2022-12-17T09:04:17.043Z,98892.88
2022-12-17T09:06:59.629Z,98892.63
2022-12-17T09:09:42.137Z,98901.91
2022-12-17T09:12:24.653Z,98904.13
2022-12-17T09:15:07.219Z,98913.22
2022-12-17T09:17:52.385Z,98910.88
2022-12-17T09:20:34.974Z,98915.09
2022-12-17T09:23:17.520Z,98906.91
2022-12-17T09:26:07.746Z,98908.00
2022-12-17T09:28:50.275Z,98904.06
2022-12-17T09:31:37.301Z,98911.97
2022-12-17T09:34:22.834Z,98913.34
2022-12-17T09:37:05.362Z,98925.69
2022-12-17T09:39:47.871Z,98926.38
2022-12-17T09:42:40.171Z,98922.56
2022-12-17T09:45:31.145Z,98923.41
2022-12-17T09:48:32.089Z,98919.94
2022-12-17T09:51:17.924Z,98927.28
2022-12-17T09:54:04.584Z,98919.94
2022-12-17T09:56:50.616Z,98921.25
2022-12-17T09:59:37.784Z,98921.25
2022-12-17T10:02:32.125Z,98922.13
2022-12-17T10:05:17.115Z,98921.06
2022-12-17T10:08:03.377Z,98921.03
2022-12-17T10:10:48.631Z,98911.44
2022-12-17T10:13:34.881Z,98910.34
2022-12-17T10:16:18.392Z,98917.84
2022-12-17T10:19:02.199Z,98924.53
2022-12-17T10:21:45.733Z,98921.72
2022-12-17T10:24:31.523Z,98920.59
2022-12-17T10:27:14.262Z,98920.69
2022-12-17T10:29:58.944Z,98910.53
2022-12-17T10:32:43.323Z,98923.00
2022-12-17T10:35:34.901Z,98923.44
2022-12-17T10:38:26.053Z,98933.56
2022-12-17T10:41:11.717Z,98931.63
2022-12-17T10:43:55.686Z,98932.91
2022-12-17T10:46:41.041Z,98922.25
2022-12-17T10:49:30.423Z,98924.75
2022-12-17T10:52:20.442Z,98926.06
2022-12-17T10:55:15.643Z,98930.84
2022-12-17T10:58:03.472Z,98924.94
2022-12-17T11:00:50.766Z,98925.88
2022-12-17T11:04:04.613Z,98922.94
2022-12-17T11:06:51.695Z,98927.09
2022-12-17T11:10:05.287Z,98931.28
2022-12-17T11:13:01.724Z,98925.06
2022-12-17T11:15:53.249Z,98930.91
2022-12-17T11:18:44.564Z,98936.38
2022-12-17T11:21:32.651Z,98946.66
2022-12-17T11:24:22.194Z,98938.91
2022-12-17T11:27:11.583Z,98948.03
2022-12-17T11:29:56.792Z,98943.59
2022-12-17T11:33:14.903Z,98954.91
2022-12-17T11:36:17.081Z,98957.94
2022-12-17T11:39:10.489Z,98951.31
2022-12-17T11:42:11.746Z,98950.69
2022-12-17T11:45:09.203Z,98947.44
2022-12-17T11:48:10.650Z,98954.59
2022-12-17T11:51:03.628Z,98947.44
2022-12-17T11:54:11.908Z,98953.53
2022-12-17T11:57:00.540Z,98956.47
2022-12-17T11:59:53.485Z,98950.06
2022-12-17T12:03:01.089Z,98953.44
2022-12-17T12:06:01.174Z,98963.78
2022-12-17T12:08:49.568Z,98958.59
2022-12-17T12:11:44.355Z,98957.41
2022-12-17T12:14:46.866Z,98958.09
2022-12-17T12:17:58.694Z,98948.03
2022-12-17T12:21:01.702Z,98945.44
2022-12-17T12:24:02.645Z,98948.25
2022-12-17T12:26:55.941Z,98955.28
2022-12-17T12:29:54.046Z,98952.31
2022-12-17T12:32:50.397Z,98948.25
2022-12-17T12:35:39.066Z,98945.34
2022-12-17T12:38:31.090Z,98941.44
2022-12-17T12:41:25.933Z,98945.28
2022-12-17T12:44:16.930Z,98936.97
2022-12-17T12:47:11.304Z,98937.56
2022-12-17T12:50:08.978Z,98932.97
2022-12-17T12:52:52.940Z,98934.47
2022-12-17T12:55:35.514Z,98930.56
2022-12-17T12:58:20.072Z,98922.66
2022-12-17T13:01:10.608Z,98926.88
2022-12-17T13:04:04.774Z,98932.13
2022-12-17T13:06:48.993Z,98932.63
2022-12-17T13:09:36.292Z,98943.47
2022-12-17T13:12:33.964Z,98942.00
2022-12-17T13:15:33.067Z,98950.44
2022-12-17T13:18:21.730Z,98951.09
2022-12-17T13:21:05.026Z,98938.28
2022-12-17T13:23:40.868Z,98937.69
2022-12-17T13:26:22.314Z,98938.03
2022-12-17T13:29:13.561Z,98943.25
2022-12-17T13:32:05.661Z,98942.53
2022-12-17T13:34:53.425Z,98940.84
2022-12-17T13:37:40.073Z,98941.94
2022-12-17T13:40:36.038Z,98943.69
2022-12-17T13:43:06.280Z,98938.56
2022-12-17T13:45:41.542Z,98942.25
2022-12-17T13:48:25.486Z,98944.44
2022-12-17T13:51:02.410Z,98933.16
2022-12-17T13:53:35.496Z,98934.34
2022-12-17T13:56:08.330Z,98941.16
2022-12-17T13:58:38.724Z,98945.75
2022-12-17T14:01:11.476Z,98943.25
2022-12-17T14:04:05.300Z,98944.94
2022-12-17T14:06:37.552Z,98949.44
2022-12-17T14:09:08.546Z,98946.34
2022-12-17T14:11:53.842Z,98950.69
2022-12-17T14:14:36.515Z,98950.13
2022-12-17T14:17:07.030Z,98950.44
2022-12-17T14:19:37.424Z,98951.47
2022-12-17T14:22:08.288Z,98959.31
2022-12-17T14:24:38.437Z,98963.06
2022-12-17T14:27:28.948Z,98966.25
2022-12-17T14:29:59.030Z,98967.19
2022-12-17T14:32:36.974Z,98968.91
2022-12-17T14:35:08.259Z,98968.53
2022-12-17T14:37:38.410Z,98966.75
2022-12-17T14:40:14.029Z,98958.69
2022-12-17T14:42:46.864Z,98960.63
2022-12-17T14:45:27.666Z,98965.72
2022-12-17T14:48:00.827Z,98970.75
2022-12-17T14:50:35.737Z,98972.88
2022-12-17T14:53:25.813Z,98970.22
2022-12-17T14:55:59.120Z,98970.09
2022-12-17T14:58:32.077Z,98968.31
2022-12-17T15:01:09.882Z,98964.72
2022-12-17T15:03:46.184Z,98965.03
2022-12-17T15:06:21.321Z,98969.41
2022-12-17T15:08:54.102Z,98972.59
2022-12-17T15:11:25.945Z,98975.88
2022-12-17T15:13:58.568Z,98972.38
2022-12-17T15:16:28.591Z,98978.41
2022-12-17T15:18:58.695Z,98981.47
2022-12-17T15:21:29.764Z,98985.41
2022-12-17T15:23:59.819Z,98985.78
2022-12-17T15:26:29.884Z,98985.78
2022-12-17T15:29:02.564Z,98986.09
2022-12-17T15:31:35.671Z,98992.06
2022-12-17T15:34:06.319Z,98992.47
2022-12-17T15:36:36.443Z,98996.78
2022-12-17T15:39:07.185Z,98997.66
2022-12-17T15:41:50.041Z,98998.03
2022-12-17T15:44:22.644Z,99000.25
2022-12-17T15:46:52.629Z,99005.41
2022-12-17T15:49:23.055Z,98993.13
2022-12-17T15:51:53.055Z,98997.25
2022-12-17T15:54:23.086Z,98998.59
2022-12-17T15:56:56.382Z,99014.53
2022-12-17T15:59:29.007Z,99015.78
2022-12-17T16:01:59.101Z,99012.19
2022-12-17T16:04:29.259Z,99018.00
2022-12-17T16:06:59.296Z,99014.97
2022-12-17T16:09:29.994Z,99028.09
2022-12-17T16:12:00.854Z,99019.59
2022-12-17T16:14:33.475Z,99026.34
2022-12-17T16:17:03.600Z,99027.19
2022-12-17T16:19:33.733Z,99017.09
2022-12-17T16:22:03.751Z,99028.50
2022-12-17T16:24:33.871Z,99036.72
2022-12-17T16:27:04.788Z,99036.09
2022-12-17T16:29:37.642Z,99040.03
2022-12-17T16:32:08.158Z,99036.59
2022-12-17T16:34:38.200Z,99040.41
2022-12-17T16:37:08.628Z,99030.06
2022-12-17T16:39:38.690Z,99029.13
2022-12-17T16:42:08.898Z,99033.91
2022-12-17T16:44:41.501Z,99034.81
2022-12-17T16:47:13.077Z,99031.31
2022-12-17T16:49:43.267Z,99036.69
2022-12-17T16:52:13.316Z,99039.81
2022-12-17T16:54:43.546Z,99043.91
2022-12-17T16:57:13.624Z,99041.19
2022-12-17T16:59:46.291Z,99041.22
2022-12-17T17:02:18.654Z,99042.34
2022-12-17T17:04:48.895Z,99046.81
2022-12-17T17:07:18.887Z,99042.75
2022-12-17T17:09:48.911Z,99052.50
2022-12-17T17:12:18.956Z,99055.00
2022-12-17T17:14:53.304Z,99046.63
2022-12-17T17:17:54.573Z,99057.06
2022-12-17T17:20:15.968Z,99049.94
2022-12-17T17:22:46.206Z,99048.81
2022-12-17T17:25:16.283Z,99053.88
2022-12-17T17:27:46.289Z,99052.22
2022-12-17T17:30:19.239Z,99059.66
2022-12-17T17:32:49.238Z,99058.72
2022-12-17T17:35:22.080Z,99061.13
2022-12-17T17:37:52.066Z,99065.97
2022-12-17T17:40:22.250Z,99062.94
2022-12-17T17:42:53.216Z,99067.72
2022-12-17T17:45:25.964Z,99064.69
2022-12-17T17:47:56.565Z,99064.94
2022-12-17T17:50:26.587Z,99071.31
2022-12-17T17:52:56.562Z,99063.63
2022-12-17T17:55:26.556Z,99072.19
2022-12-17T17:57:56.680Z,99082.44
2022-12-17T18:00:29.686Z,99081.44
2022-12-17T18:02:59.813Z,99075.72
2022-12-17T18:05:29.976Z,99074.50
2022-12-17T18:07:59.973Z,99073.13
2022-12-17T18:10:30.005Z,99080.34
2022-12-17T18:13:12.503Z,99079.09
2022-12-17T18:15:45.195Z,99074.22
2022-12-17T18:18:15.303Z,99073.25
2022-12-17T18:20:45.398Z,99081.13
2022-12-17T18:23:15.443Z,99080.47
2022-12-17T18:25:45.626Z,99075.16
2022-12-17T18:28:15.607Z,99071.94
2022-12-17T18:30:48.186Z,99069.75
2022-12-17T18:33:18.174Z,99069.31
2022-12-17T18:35:48.161Z,99066.47
2022-12-17T18:38:18.236Z,99069.09
2022-12-17T18:40:48.253Z,99073.84
2022-12-17T18:43:24.474Z,99075.03
2022-12-17T18:45:57.162Z,99068.28
2022-12-17T18:48:27.784Z,99081.00
2022-12-17T18:51:02.589Z,99083.16
2022-12-17T18:53:33.640Z,99080.53
2022-12-17T18:56:11.560Z,99078.38
2022-12-17T18:58:42.052Z,99078.53
2022-12-17T19:01:22.494Z,99085.16
2022-12-17T19:03:53.353Z,99095.53
2022-12-17T19:06:26.173Z,99105.97
2022-12-17T19:08:56.196Z,99102.63
2022-12-17T19:11:26.539Z,99105.56
2022-12-17T19:13:56.767Z,99111.94
2022-12-17T19:16:32.116Z,99113.56
2022-12-17T19:19:05.600Z,99107.88
2022-12-17T19:21:37.173Z,99108.44
2022-12-17T19:24:11.024Z,99107.34
2022-12-17T19:26:41.205Z,99111.81
2022-12-17T19:29:11.585Z,99127.72
2022-12-17T19:31:44.774Z,99127.38
2022-12-17T19:34:19.022Z,99133.47
2022-12-17T19:36:50.040Z,99137.47
2022-12-17T19:39:22.348Z,99132.28
2022-12-17T19:41:52.791Z,99139.00
2022-12-17T19:44:23.125Z,99144.78
2022-12-17T19:46:56.191Z,99143.75
2022-12-17T19:49:26.364Z,99149.31
2022-12-17T19:51:56.380Z,99152.03
2022-12-17T19:54:27.466Z,99149.28
2022-12-17T19:56:57.460Z,99154.06
2022-12-17T19:59:28.414Z,99162.97
2022-12-17T20:02:03.678Z,99152.00
2022-12-17T20:04:33.858Z,99146.97
2022-12-17T20:07:04.000Z,99145.38
2022-12-17T20:09:33.962Z,99146.28
2022-12-17T20:12:04.002Z,99138.31
2022-12-17T20:14:35.360Z,99145.25
2022-12-17T20:17:08.621Z,99143.50
2022-12-17T20:19:38.790Z,99140.97
2022-12-17T20:22:09.101Z,99148.94
2022-12-17T20:24:39.685Z,99138.50
2022-12-17T20:27:09.707Z,99140.88
2022-12-17T20:29:39.931Z,99149.66
2022-12-17T20:32:12.639Z,99145.47
2022-12-17T20:34:42.726Z,99141.25
2022-12-17T20:37:13.072Z,99139.00
2022-12-17T20:39:43.187Z,99140.00
2022-12-17T20:42:13.220Z,99132.59
2022-12-17T20:44:44.110Z,99133.16
2022-12-17T20:47:18.053Z,99141.72
2022-12-17T20:49:48.073Z,99132.09
2022-12-17T20:52:18.138Z,99138.59
2022-12-17T20:54:49.353Z,99135.97
2022-12-17T20:57:19.436Z,99124.06
2022-12-17T20:59:49.477Z,99120.63
2022-12-17T21:02:22.242Z,99133.66
2022-12-17T21:04:52.404Z,99138.25
2022-12-17T21:07:22.416Z,99148.84
2022-12-17T21:09:52.426Z,99149.06
2022-12-17T21:12:22.503Z,99151.16
2022-12-17T21:14:52.518Z,99147.56
2022-12-17T21:17:25.071Z,99146.66
2022-12-17T21:19:55.987Z,99143.00
2022-12-17T21:22:26.502Z,99134.72
2022-12-17T21:24:56.496Z,99140.59
2022-12-17T21:27:26.518Z,99143.44
2022-12-17T21:29:57.965Z,99141.56
2022-12-17T21:32:33.872Z,99136.31
2022-12-17T21:35:04.202Z,99134.44
2022-12-17T21:37:34.256Z,99135.97
2022-12-17T21:40:04.662Z,99146.38
2022-12-17T21:42:47.178Z,99139.75
2022-12-17T21:45:17.816Z,99149.66
2022-12-17T21:47:50.572Z,99154.78
2022-12-17T21:50:20.993Z,99154.63
2022-12-17T21:52:51.034Z,99155.75
2022-12-17T21:55:21.057Z,99154.91
2022-12-17T21:57:51.051Z,99153.22
2022-12-17T22:00:22.137Z,99139.78
2022-12-17T22:02:54.732Z,99138.97
2022-12-17T22:05:24.942Z,99147.44
2022-12-17T22:07:55.001Z,99151.88
2022-12-17T22:10:46.541Z,99158.47
2022-12-17T22:13:28.583Z,99162.28
2022-12-17T22:15:59.287Z,99155.72
2022-12-17T22:18:31.924Z,99162.91
2022-12-17T22:21:03.702Z,99163.78
2022-12-17T22:23:33.814Z,99167.63
2022-12-17T22:26:04.952Z,99163.72
2022-12-17T22:28:35.009Z,99164.56
2022-12-17T22:31:20.225Z,99157.88
2022-12-17T22:34:17.429Z,99159.59
2022-12-17T22:39:14.155Z,99149.00
2022-12-17T22:43:53.399Z,99151.09
2022-12-17T22:44:37.805Z,99156.69
2022-12-17T22:45:27.990Z,99165.94
2022-12-17T22:47:58.024Z,99173.75
2022-12-17T22:50:40.350Z,99176.69
2022-12-17T22:53:21.001Z,99173.50
2022-12-17T22:55:51.840Z,99171.75
2022-12-17T22:58:22.069Z,99178.56
2022-12-17T23:00:52.150Z,99168.44
2022-12-17T23:03:22.322Z,99157.56
2022-12-17T23:05:55.014Z,99163.59
2022-12-17T23:08:25.010Z,99160.38
2022-12-17T23:10:55.027Z,99164.75
2022-12-17T23:13:25.004Z,99167.41
2022-12-17T23:16:02.566Z,99166.66
2022-12-17T23:18:33.038Z,99167.56
2022-12-17T23:21:12.310Z,99155.19
2022-12-17T23:23:42.864Z,99158.44
2022-12-17T23:26:17.985Z,99161.78
2022-12-17T23:28:48.892Z,99173.66
2022-12-17T23:31:22.428Z,99173.22
2022-12-17T23:33:52.443Z,99180.44
2022-12-17T23:36:28.443Z,99170.69
2022-12-17T23:39:00.434Z,99171.44
2022-12-17T23:41:32.724Z,99163.56
2022-12-17T23:44:03.926Z,99165.94
2022-12-17T23:46:34.330Z,99171.22
2022-12-17T23:49:08.772Z,99161.78
2022-12-17T23:51:41.387Z,99165.16
2022-12-17T23:54:12.097Z,99168.28
2022-12-17T23:56:42.160Z,99176.72
2022-12-17T23:59:13.362Z,99173.34
